Time;durP1;ratioP1;P1;durP2;ratioP2;P2;SDS_P1;SDS_P2;PMS_P1;PMS_P2;Temp;Humidity;BMP_temperature;BMP_pressure;BME280_temperature;BME280_humidity;BME280_pressure;Samples;Min_cycle;Max_cycle;Signal;HPM_P1;HPM_P2
2021/12/06 00:00:33;;;;;;;109.63;40.03;;;1.70;99.90;;;;;;5065788;28;20041;-48
2021/12/06 00:03:03;;;;;;;104.28;39.20;;;1.30;99.90;;;;;;5066804;28;20596;-48
2021/12/06 00:05:30;;;;;;;115.60;39.75;;;1.30;99.90;;;;;;5067218;28;20461;-52
2021/12/06 00:07:56;;;;;;;108.13;39.83;;;1.30;99.90;;;;;;5067158;28;20109;-48
2021/12/06 00:10:22;;;;;;;105.75;38.88;;;1.40;99.90;;;;;;5067317;28;20044;-48
2021/12/06 00:12:48;;;;;;;109.85;41.25;;;1.30;99.90;;;;;;5066870;28;20047;-49
2021/12/06 00:15:14;;;;;;;111.55;40.65;;;1.40;99.90;;;;;;5068655;28;20128;-48
2021/12/06 00:17:40;;;;;;;120.57;40.28;;;1.40;99.90;;;;;;5070586;28;20436;-51
2021/12/06 00:20:08;;;;;;;111.60;40.50;;;1.40;99.90;;;;;;5071269;28;20040;-48
2021/12/06 00:22:34;;;;;;;104.13;38.13;;;1.40;99.90;;;;;;5070640;28;20119;-50
2021/12/06 00:25:00;;;;;;;122.38;41.15;;;1.40;99.90;;;;;;5070636;28;20144;-48
2021/12/06 00:27:26;;;;;;;121.80;42.03;;;1.40;99.90;;;;;;5070814;28;20044;-49
2021/12/06 00:29:53;;;;;;;120.07;40.83;;;-0.20;99.90;;;;;;5071006;28;20041;-49
2021/12/06 00:32:19;;;;;;;123.15;42.22;;;1.40;99.90;;;;;;5071275;28;20254;-48
2021/12/06 00:34:45;;;;;;;115.78;39.72;;;1.40;99.90;;;;;;5070622;28;20076;-49
2021/12/06 00:37:21;;;;;;;115.75;37.95;;;1.40;99.90;;;;;;5070652;28;20135;-48
2021/12/06 00:39:55;;;;;;;121.55;39.78;;;1.40;99.90;;;;;;5070195;28;20502;-49
2021/12/06 00:42:25;;;;;;;114.47;41.25;;;1.40;99.90;;;;;;5070261;28;20036;-49
2021/12/06 00:44:52;;;;;;;110.75;41.03;;;1.40;99.90;;;;;;5070158;28;20093;-48
2021/12/06 00:47:18;;;;;;;116.20;36.97;;;1.40;99.90;;;;;;5052032;28;20052;-48
2021/12/06 00:49:47;;;;;;;110.45;40.20;;;1.40;99.90;;;;;;5070537;28;20418;-47
2021/12/06 00:52:14;;;;;;;119.53;41.45;;;1.40;99.90;;;;;;5070354;28;20414;-48
2021/12/06 00:54:41;;;;;;;131.77;42.05;;;1.40;99.90;;;;;;5069674;28;20389;-51
2021/12/06 00:57:09;;;;;;;115.82;41.50;;;1.40;99.90;;;;;;5070193;28;20037;-49
2021/12/06 00:59:35;;;;;;;119.63;40.50;;;1.50;99.90;;;;;;5069288;28;20040;-52
2021/12/06 01:02:02;;;;;;;118.68;41.47;;;1.50;99.90;;;;;;5068843;28;20044;-48
2021/12/06 01:04:30;;;;;;;113.55;40.75;;;1.50;99.90;;;;;;5069914;28;20072;-49
2021/12/06 01:06:57;;;;;;;120.43;40.78;;;1.40;99.90;;;;;;5069676;28;20044;-48
2021/12/06 01:09:22;;;;;;;125.05;42.30;;;1.40;99.90;;;;;;5070034;28;20544;-48
2021/12/06 01:11:48;;;;;;;120.47;41.33;;;1.50;99.90;;;;;;5069390;28;20040;-48
2021/12/06 01:14:14;;;;;;;122.78;42.97;;;1.50;99.90;;;;;;5069631;28;20098;-48
2021/12/06 01:16:40;;;;;;;122.10;41.33;;;1.50;99.90;;;;;;5069562;28;20040;-48
2021/12/06 01:19:05;;;;;;;111.97;39.08;;;1.50;99.90;;;;;;5069610;28;20083;-48
2021/12/06 01:22:00;;;;;;;128.20;41.88;;;1.50;99.90;;;;;;5069671;28;20581;-48
2021/12/06 01:24:30;;;;;;;109.90;39.63;;;1.50;99.90;;;;;;5069923;28;20144;-49
2021/12/06 01:27:12;;;;;;;125.32;42.72;;;1.50;99.90;;;;;;5069492;28;20045;-50
2021/12/06 01:32:20;;;;;;;138.38;43.58;;;1.50;99.90;;;;;;5069359;28;20486;-49
2021/12/06 01:40:19;;;;;;;120.28;40.97;;;1.50;99.90;;;;;;5069604;28;20486;-47
2021/12/06 01:42:45;;;;;;;116.70;39.17;;;1.50;99.90;;;;;;5069173;28;20689;-47
2021/12/06 01:45:11;;;;;;;124.30;39.55;;;1.50;99.90;;;;;;5069277;28;20036;-51
2021/12/06 01:47:40;;;;;;;132.07;41.45;;;1.90;99.90;;;;;;5069000;28;20051;-49
2021/12/06 01:50:16;;;;;;;112.55;41.55;;;1.50;99.90;;;;;;5069201;28;20102;-49
2021/12/06 01:52:46;;;;;;;113.38;38.13;;;1.50;99.90;;;;;;5069275;28;20113;-50
2021/12/06 01:55:29;;;;;;;124.30;41.15;;;1.50;99.90;;;;;;5068678;28;20521;-51
2021/12/06 01:57:56;;;;;;;114.05;38.08;;;1.50;99.90;;;;;;5068852;28;20444;-47
2021/12/06 02:00:48;;;;;;;120.45;39.83;;;1.50;99.90;;;;;;5067439;28;20410;-49
2021/12/06 02:03:16;;;;;;;118.40;41.70;;;1.50;99.90;;;;;;5068903;28;20045;-49
2021/12/06 02:05:47;;;;;;;119.70;41.30;;;1.50;99.90;;;;;;5068313;28;20111;-48
2021/12/06 02:08:14;;;;;;;118.28;41.42;;;1.50;99.90;;;;;;5068800;28;20048;-49
2021/12/06 02:10:40;;;;;;;120.97;43.33;;;1.50;99.90;;;;;;5068741;28;20486;-50
2021/12/06 02:13:08;;;;;;;133.65;43.72;;;1.50;99.90;;;;;;5068821;28;20048;-50
2021/12/06 02:15:45;;;;;;;119.38;40.63;;;1.50;99.90;;;;;;5068854;28;20048;-49
2021/12/06 02:18:28;;;;;;;126.10;42.58;;;1.50;99.90;;;;;;5068613;28;20441;-48
2021/12/06 02:21:02;;;;;;;114.35;38.45;;;1.50;99.90;;;;;;5068385;28;20044;-48
2021/12/06 02:23:29;;;;;;;119.28;39.60;;;1.50;99.90;;;;;;5068345;28;20490;-48
2021/12/06 02:25:55;;;;;;;113.32;40.63;;;1.50;99.90;;;;;;5067999;28;20056;-50
2021/12/06 02:28:21;;;;;;;115.55;41.30;;;1.50;99.90;;;;;;5068373;28;20044;-48
2021/12/06 02:30:47;;;;;;;106.65;42.60;;;1.50;99.90;;;;;;5068192;28;20451;-48
2021/12/06 02:33:13;;;;;;;137.25;43.67;;;1.50;99.90;;;;;;5068685;28;20032;-52
2021/12/06 02:35:39;;;;;;;123.93;41.83;;;1.50;99.90;;;;;;5068505;28;20486;-48
2021/12/06 02:38:07;;;;;;;119.97;43.10;;;1.50;99.90;;;;;;5067543;28;20482;-50
2021/12/06 02:40:35;;;;;;;123.68;40.40;;;1.50;99.90;;;;;;5068031;28;20036;-48
2021/12/06 02:43:04;;;;;;;117.32;39.70;;;1.60;99.90;;;;;;5067671;28;20109;-51
2021/12/06 02:45:30;;;;;;;135.88;42.78;;;1.50;99.90;;;;;;5049848;28;20052;-51
2021/12/06 02:47:58;;;;;;;154.98;43.15;;;1.60;99.90;;;;;;5067931;28;20381;-48
2021/12/06 02:50:28;;;;;;;126.72;40.42;;;1.60;99.90;;;;;;5068104;28;20048;-48
2021/12/06 02:52:55;;;;;;;124.82;42.50;;;1.60;99.90;;;;;;5067966;28;20040;-47
2021/12/06 02:55:32;;;;;;;121.07;40.40;;;1.60;99.90;;;;;;5067911;28;20131;-51
2021/12/06 02:58:02;;;;;;;124.57;42.58;;;1.60;99.90;;;;;;5067533;28;20044;-48
2021/12/06 03:00:28;;;;;;;125.32;41.40;;;1.60;99.90;;;;;;5066272;28;20040;-48
2021/12/06 03:02:54;;;;;;;135.23;43.50;;;1.60;99.90;;;;;;5067635;28;20048;-48
2021/12/06 03:05:20;;;;;;;126.10;42.60;;;1.60;99.90;;;;;;5067834;28;20039;-47
2021/12/06 03:07:51;;;;;;;119.60;39.72;;;1.60;99.90;;;;;;5067333;28;20524;-50
2021/12/06 03:10:18;;;;;;;128.85;42.45;;;1.90;99.90;;;;;;5067788;28;20535;-48
2021/12/06 03:12:44;;;;;;;119.15;39.95;;;1.60;99.90;;;;;;5067722;28;20494;-48
2021/12/06 03:15:11;;;;;;;119.18;43.10;;;1.60;99.90;;;;;;5067604;28;20052;-47
2021/12/06 03:17:37;;;;;;;124.05;40.95;;;1.60;99.90;;;;;;5068401;28;20047;-50
2021/12/06 03:20:09;;;;;;;133.43;43.35;;;1.60;99.90;;;;;;5067486;28;20505;-49
2021/12/06 03:22:35;;;;;;;146.55;43.70;;;1.60;99.90;;;;;;5068048;28;20036;-47
2021/12/06 03:25:06;;;;;;;141.57;45.15;;;1.60;99.90;;;;;;5067489;28;20068;-51
2021/12/06 03:27:32;;;;;;;142.20;44.58;;;1.60;99.90;;;;;;5068112;28;20406;-48
2021/12/06 03:29:57;;;;;;;139.55;45.03;;;1.60;99.90;;;;;;5067321;28;20051;-48
2021/12/06 03:32:23;;;;;;;145.38;45.72;;;1.60;99.90;;;;;;5067555;28;20052;-47
2021/12/06 03:34:49;;;;;;;137.73;43.83;;;1.60;99.90;;;;;;5067127;28;20044;-49
2021/12/06 03:37:14;;;;;;;134.85;44.90;;;1.60;99.90;;;;;;5067513;28;20041;-49
2021/12/06 03:39:45;;;;;;;135.93;44.25;;;1.60;99.90;;;;;;5067277;28;20036;-47
2021/12/06 03:42:12;;;;;;;135.55;43.63;;;1.60;99.90;;;;;;5067704;28;20045;-48
2021/12/06 03:44:39;;;;;;;138.38;45.28;;;1.60;99.90;;;;;;5067498;28;20444;-48
2021/12/06 03:47:11;;;;;;;133.68;42.90;;;2.20;99.90;;;;;;5049214;28;20049;-48
2021/12/06 03:49:37;;;;;;;131.90;42.92;;;1.60;99.90;;;;;;5069423;28;20533;-48
2021/12/06 03:52:05;;;;;;;134.32;41.92;;;1.70;99.90;;;;;;5070966;28;20052;-48
2021/12/06 03:54:31;;;;;;;144.23;43.97;;;1.60;99.90;;;;;;5071140;28;20109;-48
2021/12/06 03:56:57;;;;;;;145.38;45.28;;;1.60;99.90;;;;;;5071005;28;20143;-49
2021/12/06 03:59:24;;;;;;;141.50;43.72;;;1.60;99.90;;;;;;5071505;28;20134;-48
2021/12/06 04:01:50;;;;;;;136.35;43.00;;;1.60;99.90;;;;;;5069932;28;20056;-47
2021/12/06 04:04:16;;;;;;;151.20;43.58;;;1.60;99.90;;;;;;5070825;28;20127;-49
2021/12/06 04:06:42;;;;;;;150.30;44.90;;;1.60;99.90;;;;;;5070788;28;20124;-47
2021/12/06 04:09:09;;;;;;;133.20;44.53;;;1.60;99.90;;;;;;5070789;28;20433;-49
2021/12/06 04:11:36;;;;;;;147.68;46.55;;;1.60;99.90;;;;;;5070938;28;20037;-47
2021/12/06 04:14:03;;;;;;;162.85;46.42;;;1.60;99.90;;;;;;5070538;28;20040;-49
2021/12/06 04:16:29;;;;;;;146.07;43.90;;;1.60;99.90;;;;;;5071006;28;20051;-47
2021/12/06 04:18:54;;;;;;;160.38;47.08;;;1.60;99.90;;;;;;5070750;28;20036;-48
2021/12/06 04:21:21;;;;;;;152.15;45.00;;;1.60;99.90;;;;;;5070616;28;20075;-48
2021/12/06 04:23:47;;;;;;;151.07;44.65;;;1.60;99.90;;;;;;5070921;28;20044;-47
2021/12/06 04:26:13;;;;;;;148.85;43.42;;;1.60;99.90;;;;;;5070100;28;20374;-52
2021/12/06 04:28:43;;;;;;;159.88;46.13;;;1.70;99.90;;;;;;5070838;28;20066;-48
2021/12/06 04:31:09;;;;;;;155.30;45.70;;;1.60;99.90;;;;;;5070941;28;20053;-48
2021/12/06 04:33:35;;;;;;;157.07;45.13;;;1.60;99.90;;;;;;5070801;28;20051;-47
2021/12/06 04:36:02;;;;;;;154.73;45.88;;;1.60;99.90;;;;;;5070049;28;20044;-48
2021/12/06 04:38:27;;;;;;;171.05;45.90;;;1.70;99.90;;;;;;5070686;28;20040;-47
2021/12/06 04:40:53;;;;;;;176.60;48.25;;;1.70;99.90;;;;;;5070298;28;20616;-49
2021/12/06 04:43:19;;;;;;;169.13;45.92;;;1.70;99.90;;;;;;5070071;28;20044;-50
2021/12/06 04:45:45;;;;;;;160.07;46.65;;;1.70;99.90;;;;;;5070573;28;20047;-48
2021/12/06 04:48:12;;;;;;;157.90;45.70;;;1.70;99.90;;;;;;5070447;28;20079;-48
2021/12/06 04:50:40;;;;;;;168.77;46.47;;;1.70;99.90;;;;;;5070615;28;20052;-47
2021/12/06 04:53:20;;;;;;;171.70;43.38;;;1.70;99.90;;;;;;5070227;28;20045;-51
2021/12/06 04:55:59;;;;;;;177.52;45.88;;;1.70;99.90;;;;;;5070294;28;20486;-52
2021/12/06 04:58:31;;;;;;;164.73;43.85;;;1.70;99.90;;;;;;5070187;28;20040;-48
2021/12/06 05:01:08;;;;;;;154.38;44.38;;;1.70;99.90;;;;;;5067415;28;20048;-48
2021/12/06 05:03:35;;;;;;;157.02;47.50;;;1.70;99.90;;;;;;5070291;28;20055;-48
2021/12/06 05:06:06;;;;;;;166.35;46.35;;;1.70;99.90;;;;;;5070196;28;20485;-47
2021/12/06 05:08:37;;;;;;;172.80;45.78;;;1.70;99.90;;;;;;5070399;28;20040;-48
2021/12/06 05:11:04;;;;;;;188.10;47.93;;;1.80;99.90;;;;;;5069543;28;20050;-48
2021/12/06 05:13:31;;;;;;;169.02;45.30;;;1.80;99.90;;;;;;5069679;28;20371;-51
2021/12/06 05:15:57;;;;;;;168.38;45.90;;;1.80;99.90;;;;;;5069813;28;20059;-47
2021/12/06 05:18:23;;;;;;;158.10;43.28;;;1.80;99.90;;;;;;5069582;28;20062;-48
2021/12/06 05:20:50;;;;;;;148.88;41.80;;;2.40;99.90;;;;;;5069773;28;20478;-48
2021/12/06 05:23:17;;;;;;;156.50;44.00;;;1.80;99.90;;;;;;5069598;28;20047;-48
2021/12/06 05:25:42;;;;;;;155.40;43.50;;;1.80;99.90;;;;;;5069349;28;20210;-49
2021/12/06 05:28:08;;;;;;;135.10;42.17;;;1.80;99.90;;;;;;5069209;28;20123;-48
2021/12/06 05:30:36;;;;;;;153.27;43.22;;;1.80;99.90;;;;;;5069445;28;20040;-49
2021/12/06 05:33:03;;;;;;;139.38;41.08;;;1.80;99.90;;;;;;5069848;28;20040;-49
2021/12/06 05:35:29;;;;;;;137.15;41.10;;;1.80;99.90;;;;;;5069632;28;20540;-49
2021/12/06 05:37:58;;;;;;;142.15;41.35;;;1.80;99.90;;;;;;5069645;28;20044;-48
2021/12/06 05:40:27;;;;;;;135.23;41.72;;;1.80;99.90;;;;;;5069157;28;20495;-49
2021/12/06 05:42:54;;;;;;;146.90;43.35;;;1.80;99.90;;;;;;5069660;28;20055;-49
2021/12/06 05:45:22;;;;;;;141.15;43.65;;;1.80;99.90;;;;;;5051347;28;20044;-49
2021/12/06 05:47:48;;;;;;;147.93;40.30;;;1.70;99.90;;;;;;5069412;28;20044;-48
2021/12/06 05:50:15;;;;;;;157.10;40.78;;;1.80;99.90;;;;;;5069145;28;20565;-48
2021/12/06 05:52:41;;;;;;;201.95;47.08;;;1.80;99.90;;;;;;5069190;28;20544;-50
2021/12/06 05:55:09;;;;;;;174.00;45.60;;;1.80;99.90;;;;;;5050739;28;20546;-50
2021/12/06 05:57:35;;;;;;;177.15;45.70;;;1.80;99.90;;;;;;5069035;28;20140;-49
2021/12/06 06:00:07;;;;;;;161.82;45.50;;;1.80;99.90;;;;;;5067768;28;20076;-48
2021/12/06 06:02:33;;;;;;;173.15;46.20;;;1.80;99.90;;;;;;5068748;28;20120;-48
2021/12/06 06:04:59;;;;;;;171.65;46.05;;;1.80;99.90;;;;;;5069008;28;20123;-50
2021/12/06 06:07:24;;;;;;;173.00;43.60;;;1.80;99.90;;;;;;5068469;28;20042;-51
2021/12/06 06:09:50;;;;;;;167.88;46.33;;;1.80;99.90;;;;;;5068787;28;20504;-48
2021/12/06 06:12:16;;;;;;;167.48;45.90;;;1.80;99.90;;;;;;5067776;28;20118;-48
2021/12/06 06:14:41;;;;;;;164.60;45.90;;;1.80;99.90;;;;;;5068749;28;20049;-49
2021/12/06 06:17:11;;;;;;;155.93;42.15;;;1.80;99.90;;;;;;5050872;28;20067;-48
2021/12/06 06:19:41;;;;;;;166.13;45.92;;;1.80;99.90;;;;;;5068602;28;20470;-51
2021/12/06 06:22:07;;;;;;;181.00;46.53;;;1.80;99.90;;;;;;5068437;28;20597;-49
2021/12/06 06:24:32;;;;;;;174.93;44.72;;;1.50;99.90;;;;;;5067916;28;20147;-48
2021/12/06 06:26:58;;;;;;;175.23;44.85;;;1.80;99.90;;;;;;5068551;28;20057;-51
2021/12/06 06:29:24;;;;;;;165.10;45.17;;;1.80;99.90;;;;;;5068139;28;20123;-49
2021/12/06 06:31:50;;;;;;;171.93;44.28;;;1.80;99.90;;;;;;5050587;28;20136;-48
2021/12/06 06:34:16;;;;;;;157.02;44.17;;;1.80;99.90;;;;;;5049994;28;20542;-51
2021/12/06 06:36:42;;;;;;;155.63;43.30;;;1.80;99.90;;;;;;5068476;28;20072;-48
2021/12/06 06:39:09;;;;;;;169.68;46.85;;;1.80;99.90;;;;;;5067992;28;20048;-48
2021/12/06 06:41:35;;;;;;;158.50;44.17;;;1.80;99.90;;;;;;5067880;28;20040;-49
2021/12/06 06:44:01;;;;;;;154.55;43.15;;;1.80;99.90;;;;;;5068313;28;20439;-48
2021/12/06 06:46:27;;;;;;;158.00;42.58;;;1.80;99.90;;;;;;5067805;28;20044;-48
2021/12/06 06:48:53;;;;;;;155.50;42.78;;;1.80;99.90;;;;;;5068413;28;20086;-48
2021/12/06 06:51:19;;;;;;;167.80;44.67;;;1.80;99.90;;;;;;5068057;28;20052;-51
2021/12/06 06:53:45;;;;;;;141.50;41.55;;;1.90;99.90;;;;;;5068043;28;20037;-48
2021/12/06 06:56:10;;;;;;;154.90;40.38;;;1.80;99.90;;;;;;5067950;28;20045;-48
2021/12/06 06:58:36;;;;;;;151.05;43.90;;;1.80;99.90;;;;;;5068011;28;20564;-48
2021/12/06 07:01:02;;;;;;;160.20;41.97;;;1.80;99.90;;;;;;5066428;28;20052;-48
2021/12/06 07:03:31;;;;;;;170.85;44.20;;;1.80;99.90;;;;;;5067649;28;20060;-49
2021/12/06 07:05:58;;;;;;;162.85;44.13;;;1.80;99.90;;;;;;5067600;28;20080;-48
2021/12/06 07:08:24;;;;;;;166.77;41.65;;;1.80;99.90;;;;;;5067633;28;20040;-50
2021/12/06 07:10:51;;;;;;;161.88;43.58;;;2.70;99.90;;;;;;5067809;28;20498;-48
2021/12/06 07:13:17;;;;;;;183.45;44.70;;;1.90;99.90;;;;;;5067492;28;20710;-50
2021/12/06 07:15:43;;;;;;;171.68;43.15;;;1.80;99.90;;;;;;5067672;28;20048;-48
2021/12/06 07:18:09;;;;;;;160.77;45.00;;;1.80;99.90;;;;;;5067593;28;20048;-48
2021/12/06 07:20:35;;;;;;;164.32;41.63;;;2.90;99.90;;;;;;5067827;28;20074;-48
2021/12/06 07:23:03;;;;;;;163.48;41.10;;;1.80;99.90;;;;;;5067562;28;20048;-48
2021/12/06 07:25:29;;;;;;;162.30;43.60;;;1.80;99.90;;;;;;5067333;28;20064;-51
2021/12/06 07:27:56;;;;;;;173.23;42.83;;;1.80;99.90;;;;;;5067948;28;20040;-48
2021/12/06 07:30:22;;;;;;;153.98;44.35;;;1.80;99.90;;;;;;5067610;28;20044;-48
2021/12/06 07:32:50;;;;;;;179.70;45.80;;;1.80;99.90;;;;;;5067365;28;20076;-48
2021/12/06 07:35:16;;;;;;;174.07;44.25;;;1.80;99.90;;;;;;5067346;28;20115;-49
2021/12/06 07:37:42;;;;;;;172.13;42.70;;;1.80;99.90;;;;;;5067000;28;20554;-48
2021/12/06 07:40:11;;;;;;;170.95;44.80;;;1.80;99.90;;;;;;5067586;28;20080;-48
2021/12/06 07:42:37;;;;;;;187.05;45.00;;;1.80;99.90;;;;;;5067255;28;20037;-49
2021/12/06 07:45:06;;;;;;;168.82;45.85;;;1.80;99.90;;;;;;5067717;28;20402;-48
2021/12/06 07:47:31;;;;;;;175.00;45.95;;;1.80;99.90;;;;;;5067144;28;20080;-48
2021/12/06 07:49:57;;;;;;;152.35;43.70;;;1.80;99.90;;;;;;5067274;28;20086;-49
2021/12/06 07:52:23;;;;;;;134.05;41.38;;;1.80;99.90;;;;;;5067183;28;20051;-49
2021/12/06 07:54:49;;;;;;;130.23;40.47;;;1.80;99.90;;;;;;5067097;28;20049;-48
2021/12/06 07:57:14;;;;;;;135.18;39.75;;;1.90;99.90;;;;;;5067364;28;20075;-47
2021/12/06 07:59:41;;;;;;;125.32;38.25;;;1.90;99.90;;;;;;5066190;28;20486;-48
2021/12/06 08:02:08;;;;;;;126.20;39.72;;;1.90;99.90;;;;;;5066413;28;20127;-51
2021/12/06 08:04:34;;;;;;;118.40;34.80;;;2.00;99.90;;;;;;5067013;28;20046;-47
2021/12/06 08:07:00;;;;;;;109.65;36.58;;;1.90;99.90;;;;;;5067081;28;20072;-48
2021/12/06 08:09:26;;;;;;;130.38;39.50;;;1.90;99.90;;;;;;5067049;28;20116;-48
2021/12/06 08:11:52;;;;;;;125.43;38.65;;;1.90;99.90;;;;;;5067276;28;20463;-48
2021/12/06 08:14:19;;;;;;;129.07;39.03;;;1.90;99.90;;;;;;5067164;28;20072;-48
2021/12/06 08:16:46;;;;;;;118.63;37.65;;;1.90;99.90;;;;;;5066828;28;20040;-48
2021/12/06 08:19:12;;;;;;;129.88;39.10;;;1.90;99.90;;;;;;5067405;28;20075;-49
2021/12/06 08:21:38;;;;;;;142.63;37.55;;;2.00;99.90;;;;;;5067093;28;20048;-48
2021/12/06 08:24:05;;;;;;;118.22;35.92;;;2.00;99.90;;;;;;5049169;28;20040;-49
2021/12/06 08:26:34;;;;;;;94.40;34.40;;;2.00;99.90;;;;;;5067022;28;20048;-49
2021/12/06 08:29:05;;;;;;;107.55;36.63;;;2.00;99.90;;;;;;5066847;28;20102;-49
2021/12/06 08:31:31;;;;;;;106.25;36.80;;;2.00;99.90;;;;;;5066641;28;20041;-48
2021/12/06 08:33:57;;;;;;;92.95;33.33;;;3.30;99.90;;;;;;5066860;28;20109;-50
2021/12/06 08:36:24;;;;;;;109.57;33.88;;;2.00;99.90;;;;;;5068494;28;20796;-52
2021/12/06 08:38:50;;;;;;;108.45;38.13;;;2.00;99.90;;;;;;5070284;28;20166;-49
2021/12/06 08:41:19;;;;;;;96.50;34.05;;;1.90;99.90;;;;;;5069392;28;20410;-52
2021/12/06 08:43:48;;;;;;;106.38;36.63;;;1.90;99.90;;;;;;5064464;28;20509;-51
2021/12/06 08:46:19;;;;;;;106.93;37.08;;;1.90;99.90;;;;;;5069511;28;20409;-49
2021/12/06 08:48:48;;;;;;;118.63;36.83;;;1.90;99.90;;;;;;5069640;28;20485;-49
2021/12/06 08:51:19;;;;;;;107.82;35.33;;;1.90;99.90;;;;;;5069347;28;20552;-51
2021/12/06 08:53:46;;;;;;;101.18;33.75;;;1.90;99.90;;;;;;5070074;28;20722;-48
2021/12/06 08:56:12;;;;;;;93.43;32.30;;;2.40;99.90;;;;;;5070275;28;20044;-48
2021/12/06 08:58:38;;;;;;;83.75;30.85;;;2.00;99.90;;;;;;5069887;28;20066;-48
2021/12/06 09:01:05;;;;;;;90.35;32.25;;;2.00;99.90;;;;;;5070120;28;20033;-48
2021/12/06 09:03:31;;;;;;;88.88;31.08;;;2.10;99.90;;;;;;5069797;28;20483;-48
2021/12/06 09:05:58;;;;;;;85.95;31.95;;;2.10;99.90;;;;;;5035722;28;20453;-51
2021/12/06 09:08:24;;;;;;;87.03;31.20;;;2.10;99.90;;;;;;5070083;28;20075;-49
2021/12/06 09:10:52;;;;;;;96.10;33.78;;;2.10;99.90;;;;;;5069722;28;20403;-48
2021/12/06 09:13:23;;;;;;;95.72;33.55;;;2.20;99.90;;;;;;5069783;28;20044;-47
2021/12/06 09:15:51;;;;;;;83.43;32.70;;;2.20;99.90;;;;;;5069666;28;20087;-48
2021/12/06 09:18:19;;;;;;;81.90;30.92;;;2.60;99.90;;;;;;5069666;28;20124;-47
2021/12/06 09:20:46;;;;;;;81.63;31.02;;;2.30;99.90;;;;;;5069516;28;20051;-48
2021/12/06 09:23:13;;;;;;;70.50;29.05;;;2.40;99.90;;;;;;5069531;28;20041;-49
2021/12/06 09:25:40;;;;;;;67.22;27.75;;;2.40;99.90;;;;;;5069307;28;20060;-48
2021/12/06 09:28:06;;;;;;;71.93;29.80;;;2.40;99.90;;;;;;5069751;28;20114;-49
2021/12/06 09:30:34;;;;;;;69.63;27.95;;;2.40;99.90;;;;;;5069621;28;20037;-47
2021/12/06 09:33:01;;;;;;;79.32;30.85;;;2.90;99.90;;;;;;5069558;28;20135;-47
2021/12/06 09:35:29;;;;;;;64.28;27.02;;;2.40;99.90;;;;;;5069498;28;20514;-48
2021/12/06 09:37:58;;;;;;;70.10;30.13;;;2.30;99.90;;;;;;5069104;28;20518;-49
2021/12/06 09:40:26;;;;;;;79.13;31.58;;;2.30;99.90;;;;;;5069318;28;20040;-48
2021/12/06 09:42:52;;;;;;;85.00;30.85;;;2.30;99.90;;;;;;5069133;28;20375;-48
2021/12/06 09:45:30;;;;;;;79.28;31.38;;;2.30;99.90;;;;;;5067544;28;20513;-48
2021/12/06 09:47:58;;;;;;;85.03;30.98;;;2.30;99.90;;;;;;5068662;28;20064;-48
2021/12/06 09:50:40;;;;;;;82.30;31.45;;;2.40;99.90;;;;;;5068928;28;20490;-48
2021/12/06 09:53:08;;;;;;;76.53;30.65;;;2.40;99.90;;;;;;5069000;28;20724;-51
2021/12/06 09:55:36;;;;;;;71.03;29.48;;;2.40;99.90;;;;;;5068314;28;20561;-48
2021/12/06 09:58:04;;;;;;;71.90;28.13;;;2.30;99.90;;;;;;5068693;28;20371;-50
2021/12/06 10:00:33;;;;;;;81.70;31.75;;;2.30;99.90;;;;;;5068365;28;20130;-48
2021/12/06 10:02:59;;;;;;;74.47;27.95;;;3.30;99.90;;;;;;5068644;28;20040;-47
2021/12/06 10:05:29;;;;;;;77.40;29.38;;;2.30;99.90;;;;;;5068780;28;20033;-48
2021/12/06 10:07:57;;;;;;;85.70;33.55;;;2.30;99.90;;;;;;5068174;28;20482;-47
2021/12/06 10:10:24;;;;;;;84.82;32.25;;;2.30;99.90;;;;;;5068150;28;20061;-51
2021/12/06 10:12:52;;;;;;;77.80;30.73;;;2.30;99.90;;;;;;5068501;28;20048;-48
2021/12/06 10:15:25;;;;;;;86.32;31.75;;;2.30;99.90;;;;;;5068801;28;20123;-47
2021/12/06 10:17:55;;;;;;;79.25;30.52;;;2.40;99.90;;;;;;5068625;28;20482;-47
2021/12/06 10:20:22;;;;;;;79.28;30.42;;;2.30;99.90;;;;;;5068694;28;20499;-49
2021/12/06 10:22:50;;;;;;;79.72;29.08;;;2.30;99.90;;;;;;5068396;28;20040;-47
2021/12/06 10:25:17;;;;;;;73.70;28.95;;;2.40;99.90;;;;;;5068183;28;20090;-48
2021/12/06 10:28:03;;;;;;;69.68;27.92;;;2.40;99.90;;;;;;5068087;28;20044;-48
2021/12/06 10:30:29;;;;;;;76.70;32.10;;;2.40;99.90;;;;;;5068106;28;20044;-49
2021/12/06 10:33:19;;;;;;;76.88;31.42;;;2.40;99.90;;;;;;5066648;28;20040;-48
2021/12/06 10:35:49;;;;;;;78.55;33.53;;;2.40;99.90;;;;;;5067975;28;20189;-48
2021/12/06 10:38:20;;;;;;;80.07;32.97;;;2.40;99.90;;;;;;5067998;28;20375;-49
2021/12/06 10:40:46;;;;;;;79.07;35.33;;;2.50;99.90;;;;;;5067842;28;20052;-50
2021/12/06 10:43:13;;;;;;;87.93;35.85;;;2.50;99.90;;;;;;5067694;28;20086;-48
2021/12/06 10:45:47;;;;;;;91.38;39.03;;;2.50;99.90;;;;;;5068133;28;20040;-49
2021/12/06 10:48:26;;;;;;;105.13;42.92;;;2.50;99.90;;;;;;5050037;28;20052;-49
2021/12/06 10:50:52;;;;;;;104.15;41.70;;;2.50;99.90;;;;;;5068039;28;20055;-48
2021/12/06 10:53:26;;;;;;;92.40;38.20;;;2.50;99.90;;;;;;5067978;28;20040;-51
2021/12/06 10:55:54;;;;;;;85.30;36.10;;;2.50;99.90;;;;;;5066983;28;20119;-48
2021/12/06 10:58:25;;;;;;;79.43;35.25;;;2.50;99.90;;;;;;5066688;28;20620;-48
2021/12/06 11:00:52;;;;;;;72.35;32.47;;;2.50;99.90;;;;;;5065685;28;20112;-49
2021/12/06 11:03:33;;;;;;;68.95;32.75;;;2.60;99.90;;;;;;5068113;28;20041;-47
2021/12/06 11:06:09;;;;;;;80.22;35.45;;;2.50;99.90;;;;;;5067527;28;20119;-49
2021/12/06 11:08:38;;;;;;;74.00;32.63;;;2.60;99.90;;;;;;5068219;28;20040;-48
2021/12/06 11:11:16;;;;;;;65.68;31.48;;;2.60;99.90;;;;;;5067503;28;20044;-48
2021/12/06 11:13:48;;;;;;;72.22;31.55;;;2.60;99.90;;;;;;5058691;28;20067;-52
2021/12/06 11:16:16;;;;;;;66.22;28.55;;;2.40;99.90;;;;;;5042540;28;20052;-55
2021/12/06 11:18:53;;;;;;;66.53;29.02;;;2.60;99.90;;;;;;5065709;28;20068;-53
2021/12/06 11:21:19;;;;;;;69.43;29.30;;;2.60;99.90;;;;;;5049408;28;20451;-40
2021/12/06 11:24:09;;;;;;;65.82;29.35;;;2.60;99.90;;;;;;5064383;28;20083;-35
2021/12/06 11:26:46;;;;;;;67.28;29.40;;;2.70;99.90;;;;;;5033099;28;20127;-36
2021/12/06 11:29:22;;;;;;;66.25;26.63;;;2.70;99.90;;;;;;5020098;28;20072;-37
2021/12/06 11:32:05;;;;;;;64.32;27.75;;;2.80;99.90;;;;;;5043316;28;20037;-38
2021/12/06 11:34:36;;;;;;;;;;;2.90;99.90;;;;;;5045667;28;20055;-37
2021/12/06 11:37:10;;;;;;;48.67;24.90;;;2.90;99.90;;;;;;5044871;28;19981;-39
2021/12/06 11:39:35;;;;;;;55.03;25.30;;;3.00;99.90;;;;;;5033603;28;20056;-46
2021/12/06 11:42:01;;;;;;;44.88;23.70;;;2.90;99.90;;;;;;5025242;28;20046;-45
2021/12/06 11:44:33;;;;;;;55.95;24.48;;;2.90;99.90;;;;;;5029449;28;20045;-46
2021/12/06 11:47:06;;;;;;;45.60;23.38;;;2.90;99.90;;;;;;5044858;28;20087;-45
2021/12/06 11:49:37;;;;;;;45.20;23.67;;;2.90;99.90;;;;;;5031998;28;20045;-46
2021/12/06 11:52:05;;;;;;;41.30;22.58;;;2.90;99.90;;;;;;5031443;28;20049;-46
2021/12/06 11:54:40;;;;;;;41.78;22.75;;;2.90;99.90;;;;;;5045462;28;20111;-44
2021/12/06 11:57:12;;;;;;;49.80;23.40;;;2.90;99.90;;;;;;5045013;28;20709;-45
2021/12/06 11:59:55;;;;;;;51.70;24.88;;;2.90;99.90;;;;;;5045343;28;20091;-46
2021/12/06 12:02:54;;;;;;;43.72;23.13;;;2.90;99.90;;;;;;5043908;28;20143;-44
2021/12/06 12:05:26;;;;;;;45.75;23.55;;;2.90;99.90;;;;;;5044343;28;20064;-45
2021/12/06 12:07:59;;;;;;;44.22;23.55;;;2.90;99.90;;;;;;5042157;28;20076;-44
2021/12/06 12:10:39;;;;;;;55.58;25.70;;;3.00;99.90;;;;;;5047161;28;20049;-45
2021/12/06 12:13:08;;;;;;;52.97;24.52;;;3.00;99.90;;;;;;5048611;28;20449;-49
2021/12/06 12:15:35;;;;;;;52.95;24.75;;;3.00;99.90;;;;;;5048132;28;20049;-52
2021/12/06 12:18:01;;;;;;;47.85;24.90;;;3.00;99.90;;;;;;5047972;28;20045;-47
2021/12/06 12:20:30;;;;;;;57.22;25.05;;;3.20;99.90;;;;;;5048703;28;20208;-47
2021/12/06 12:22:59;;;;;;;56.65;28.10;;;3.00;99.90;;;;;;5048600;28;20835;-46
2021/12/06 12:25:36;;;;;;;61.35;27.63;;;3.10;99.90;;;;;;5060234;28;20110;-44
2021/12/06 12:28:26;;;;;;;52.13;26.95;;;3.00;99.90;;;;;;5047184;28;20053;-45
2021/12/06 12:30:56;;;;;;;56.28;28.20;;;3.10;99.90;;;;;;5068524;28;20048;-45
2021/12/06 12:33:22;;;;;;;57.40;27.33;;;3.10;99.90;;;;;;5068642;28;20051;-47
2021/12/06 12:35:52;;;;;;;57.67;29.33;;;3.20;99.90;;;;;;5067927;28;20051;-45
2021/12/06 12:38:30;;;;;;;60.95;29.25;;;3.30;99.90;;;;;;5068277;28;20048;-44
2021/12/06 12:40:59;;;;;;;51.72;27.13;;;3.30;99.90;;;;;;5067959;28;20151;-46
2021/12/06 12:43:34;;;;;;;49.70;26.70;;;3.50;99.90;;;;;;5071155;28;20497;-47
2021/12/06 12:46:05;;;;;;;52.00;26.38;;;3.50;99.90;;;;;;5070610;28;20094;-48